Pompano Beach, FL

1:35 AM EDT on August 28, 2016 (GMT -0400)
| | Change Station

Elev -9999 ft 0.00 °N, 0.00 °E | Updated

Partly Cloudy
Partly Cloudy
80 °F
Feels Like 86 °F
N
12
Wind Variable Wind from East
Gusts 17 mph

Today
High -- | Low -- °F
--% Chance of Precip.
Yesterday
High -- | Low -- °F
Precip. -- in
Pressure 29.92 in
Visibility 10.0 miles
Clouds Few 2700 ft
Heat Index 86 °F
Dew Point 75 °F
Humidity 84%
Rainfall --
Snow Depth Not available.
6:59 AM 7:44 PM
Waning Crescent, 18% visible
METAR KFXE 280453Z AUTO 08010KT 10SM FEW027 28/23 A2991 RMK AO2 SLP130 T02830233 403330267
Pressure 29.92 in
Visibility 10.0 miles
Clouds Few 2700 ft
Heat Index 86 °F
Dew Point 75 °F
Humidity 84%
Rainfall --
Snow Depth Not available.
6:59 AM 7:44 PM
Waning Crescent, 18% visible
METAR KFXE 280453Z AUTO 08010KT 10SM FEW027 28/23 A2991 RMK AO2 SLP130 T02830233 403330267

10-Day Weather Forecast

Almanac

Astronomy

Aug. 28, 2016 Rise Set
Actual Time
Civil Twilight
Nautical Twilight
Astronomical Twilight
Moon
Length of Visible Light
Length of Day
Tomorrow will be .
, % of the Moon is Illuminated

Today's Extremes

State Highs State Lows

Community

WunderPhotos

Upload Photos

1,935,531 photos uploaded!

WunderBlog® & News

Nearby

Air Quality

  Air Quality AQ Index Pollutant
Not available.

Snow Depth

Station Depth Elevation

Earthquake Activity

City Distance Mag. Time & Date
Minimum magnitude displayed is 2.5.

Coastal Water Temperatures

Place Temperature

Stations

Nearby Weather Stations

Station Location Temp. Windchill Dew Point Humidity Wind Precip. Elev Updated Type
                   

Watches & Warnings

There are currently no watches in effect.